Time;durP1;ratioP1;P1;durP2;ratioP2;P2;SDS_P1;SDS_P2;PMS_P1;PMS_P2;Temp;Humidity;BMP_temperature;BMP_pressure;BME280_temperature;BME280_humidity;BME280_pressure;Samples;Min_cycle;Max_cycle;Signal;HPM_P1;HPM_P2
2022/03/13 04:02:26;;;;;;;2.27;2.17;;;6.20;56.20;;;;;;5242684;23;20535;-73
2022/03/13 04:04:53;;;;;;;1.90;1.80;;;6.20;56.60;;;;;;4955980;29;20446;-72
2022/03/13 04:07:19;;;;;;;1.93;1.83;;;6.20;56.50;;;;;;4955886;29;20490;-72
2022/03/13 04:09:46;;;;;;;2.10;2.00;;;6.10;56.80;;;;;;4955842;29;20450;-73
2022/03/13 04:12:13;;;;;;;2.50;2.40;;;6.20;56.20;;;;;;4955776;28;20565;-72
2022/03/13 04:14:40;;;;;;;2.23;2.13;;;6.20;56.40;;;;;;5060383;23;20553;-69
2022/03/13 04:17:07;;;;;;;2.10;2.00;;;6.20;56.10;;;;;;4955751;29;20471;-69
2022/03/13 04:19:35;;;;;;;1.90;1.80;;;6.10;56.10;;;;;;4955797;29;20454;-69
2022/03/13 04:22:02;;;;;;;1.90;1.80;;;6.10;56.40;;;;;;4955656;29;20461;-68
2022/03/13 04:24:31;;;;;;;2.20;2.10;;;6.10;56.70;;;;;;4955392;28;20530;-69
2022/03/13 04:26:58;;;;;;;2.00;1.90;;;6.10;56.70;;;;;;4955413;29;20799;-69
2022/03/13 04:29:25;;;;;;;2.07;1.97;;;6.10;56.80;;;;;;4955564;29;20451;-69
2022/03/13 04:31:53;;;;;;;2.10;2.00;;;6.10;56.80;;;;;;4955507;29;20447;-69
2022/03/13 04:34:21;;;;;;;2.10;2.00;;;6.00;57.00;;;;;;4955439;28;20711;-69
2022/03/13 04:36:50;;;;;;;1.90;1.80;;;6.00;57.10;;;;;;4955462;29;20489;-69
2022/03/13 04:39:17;;;;;;;2.20;2.10;;;6.00;57.30;;;;;;4955498;29;20455;-70
2022/03/13 04:41:44;;;;;;;1.70;1.60;;;6.00;57.30;;;;;;4955416;29;20451;-70
2022/03/13 04:44:14;;;;;;;2.10;2.00;;;6.00;57.40;;;;;;4955356;28;20820;-70
2022/03/13 04:46:41;;;;;;;2.10;2.00;;;6.00;57.60;;;;;;4955278;29;20828;-69
2022/03/13 04:49:08;;;;;;;1.77;1.67;;;6.00;57.80;;;;;;4955503;29;20859;-70
2022/03/13 04:51:34;;;;;;;2.40;2.30;;;5.90;58.10;;;;;;4955308;29;20510;-69
2022/03/13 04:54:02;;;;;;;2.10;2.00;;;5.90;57.90;;;;;;4955309;28;20482;-70
2022/03/13 04:56:29;;;;;;;2.20;2.10;;;5.90;58.10;;;;;;4955883;29;20475;-69
2022/03/13 04:58:56;;;;;;;2.10;2.00;;;5.90;58.20;;;;;;4955395;29;20482;-69
2022/03/13 05:01:22;;;;;;;1.93;1.83;;;5.80;58.60;;;;;;4955419;29;20506;-70
2022/03/13 05:03:49;;;;;;;2.00;1.90;;;5.70;59.40;;;;;;4955159;28;20446;-70
2022/03/13 05:06:15;;;;;;;2.17;2.00;;;5.60;60.20;;;;;;4955182;29;20443;-70
2022/03/13 05:08:42;;;;;;;2.00;1.90;;;5.70;60.20;;;;;;4954789;29;20965;-69
2022/03/13 05:11:10;;;;;;;2.10;2.00;;;5.80;60.20;;;;;;4955144;29;20474;-70
2022/03/13 05:13:38;;;;;;;2.57;2.47;;;5.90;59.90;;;;;;4954750;29;20454;-70
2022/03/13 05:16:05;;;;;;;2.20;2.10;;;5.90;59.40;;;;;;4954577;28;20573;-69
2022/03/13 05:18:32;;;;;;;2.03;1.93;;;5.80;59.40;;;;;;4955004;29;20510;-69
2022/03/13 05:20:59;;;;;;;2.33;2.23;;;5.90;59.50;;;;;;4954946;29;20501;-68
2022/03/13 05:23:26;;;;;;;2.10;2.00;;;5.70;61.50;;;;;;4954901;29;20454;-70
2022/03/13 05:25:52;;;;;;;2.23;2.10;;;5.80;60.80;;;;;;4954893;28;20558;-70
2022/03/13 05:28:20;;;;;;;2.13;2.03;;;5.90;60.00;;;;;;4954911;29;20446;-69
2022/03/13 05:30:47;;;;;;;2.10;2.00;;;5.90;59.70;;;;;;4954567;29;20435;-69
2022/03/13 05:33:14;;;;;;;2.70;2.60;;;5.80;59.40;;;;;;4955640;29;20446;-69
2022/03/13 05:35:40;;;;;;;2.40;2.30;;;5.80;59.10;;;;;;4955772;28;20908;-70
2022/03/13 05:38:07;;;;;;;2.37;2.27;;;5.70;59.10;;;;;;4958175;29;20451;-70
2022/03/13 05:40:36;;;;;;;2.80;2.70;;;5.70;59.10;;;;;;4958426;29;20446;-70
2022/03/13 05:43:04;;;;;;;1.97;1.87;;;5.60;59.60;;;;;;4958120;29;20977;-69
2022/03/13 05:45:32;;;;;;;2.23;2.13;;;5.50;59.90;;;;;;4958286;28;20467;-69
2022/03/13 05:48:00;;;;;;;2.47;2.37;;;5.30;62.30;;;;;;4958315;29;20530;-69
2022/03/13 05:50:29;;;;;;;2.67;2.57;;;5.20;63.80;;;;;;4958292;29;20458;-69
2022/03/13 05:52:56;;;;;;;2.67;2.47;;;5.10;65.00;;;;;;4958298;29;20442;-70
2022/03/13 05:55:25;;;;;;;2.50;2.30;;;5.10;65.40;;;;;;4958151;28;20498;-68
2022/03/13 05:57:52;;;;;;;2.20;2.10;;;5.30;65.30;;;;;;4958108;29;20582;-69
2022/03/13 06:00:21;;;;;;;2.30;2.20;;;5.60;64.50;;;;;;4958183;29;20442;-69
2022/03/13 06:02:50;;;;;;;2.50;2.40;;;5.70;64.00;;;;;;4958281;29;20450;-69
2022/03/13 06:05:18;;;;;;;2.30;2.20;;;6.00;63.40;;;;;;4958039;28;20470;-69
2022/03/13 06:07:46;;;;;;;2.40;2.30;;;6.20;62.70;;;;;;4958065;29;20447;-69
2022/03/13 06:10:14;;;;;;;2.20;2.10;;;6.40;62.10;;;;;;4957878;29;20509;-70
2022/03/13 06:12:41;;;;;;;2.30;2.20;;;6.70;61.80;;;;;;4957518;29;20871;-70
2022/03/13 06:15:11;;;;;;;1.90;1.80;;;6.80;60.30;;;;;;4957462;28;20483;-69
2022/03/13 06:17:39;;;;;;;2.40;2.30;;;7.00;59.50;;;;;;4957726;29;20470;-68
2022/03/13 06:20:10;;;;;;;1.90;1.80;;;7.20;58.90;;;;;;4957640;29;20542;-70
2022/03/13 06:22:37;;;;;;;2.40;2.30;;;7.40;58.20;;;;;;4957627;29;20439;-68
2022/03/13 06:25:05;;;;;;;2.87;2.77;;;7.50;58.00;;;;;;4957499;28;20475;-70
2022/03/13 06:27:32;;;;;;;1.90;1.80;;;7.80;57.50;;;;;;4957142;29;20820;-69
2022/03/13 06:30:00;;;;;;;1.83;1.73;;;8.20;56.80;;;;;;4957453;29;20802;-70
2022/03/13 06:32:27;;;;;;;1.90;1.80;;;8.50;56.10;;;;;;4957464;29;20454;-70
2022/03/13 06:34:54;;;;;;;2.17;2.07;;;9.30;54.60;;;;;;4957359;28;20475;-70
2022/03/13 06:37:22;;;;;;;2.10;2.00;;;10.30;52.60;;;;;;4956986;29;21049;-71
2022/03/13 06:39:51;;;;;;;1.90;1.80;;;11.30;50.40;;;;;;4957278;29;20453;-69
2022/03/13 06:42:18;;;;;;;1.83;1.73;;;12.10;48.20;;;;;;4957009;29;20455;-69
2022/03/13 06:44:45;;;;;;;2.30;2.10;;;12.70;46.80;;;;;;4957218;28;20477;-71
2022/03/13 06:47:13;;;;;;;2.30;2.10;;;13.70;45.60;;;;;;4956801;28;20880;-70
2022/03/13 06:49:40;;;;;;;2.00;1.90;;;14.70;43.60;;;;;;4957108;29;20459;-69
2022/03/13 06:52:07;;;;;;;1.90;1.80;;;15.70;42.30;;;;;;4958509;29;20447;-69
2022/03/13 06:54:36;;;;;;;2.10;2.00;;;16.70;40.60;;;;;;4956801;28;20908;-70
2022/03/13 06:57:03;;;;;;;1.90;1.80;;;17.50;39.20;;;;;;4957101;29;20478;-69
2022/03/13 06:59:30;;;;;;;1.80;1.70;;;18.00;38.30;;;;;;4957087;29;20450;-70
2022/03/13 07:01:56;;;;;;;2.33;2.23;;;18.30;37.30;;;;;;4957089;29;20450;-71
2022/03/13 07:04:23;;;;;;;2.07;1.97;;;17.90;38.10;;;;;;4957027;28;20471;-71
2022/03/13 07:06:49;;;;;;;2.00;1.90;;;17.20;38.20;;;;;;4956966;29;20483;-70
2022/03/13 07:09:16;;;;;;;1.70;1.60;;;17.40;38.80;;;;;;4956946;29;20458;-69
2022/03/13 07:11:49;;;;;;;1.90;1.80;;;17.90;38.40;;;;;;4956985;29;20458;-70
2022/03/13 07:14:16;;;;;;;1.83;1.73;;;18.40;37.10;;;;;;4956765;28;20585;-71
2022/03/13 07:16:43;;;;;;;1.70;1.60;;;17.70;37.70;;;;;;4956688;29;20477;-70
2022/03/13 07:19:10;;;;;;;2.20;2.10;;;18.00;37.80;;;;;;4956738;29;20538;-70
2022/03/13 07:21:38;;;;;;;2.10;2.00;;;18.40;37.70;;;;;;4956648;29;20480;-70
2022/03/13 07:24:05;;;;;;;2.00;1.90;;;19.50;36.60;;;;;;4956511;28;20457;-71
2022/03/13 07:26:32;;;;;;;1.90;1.80;;;20.70;35.20;;;;;;4956544;29;20447;-70
2022/03/13 07:29:01;;;;;;;2.00;1.90;;;21.60;34.30;;;;;;4956560;29;20510;-69
2022/03/13 07:31:28;;;;;;;1.73;1.63;;;22.30;33.20;;;;;;4956515;29;20459;-71
2022/03/13 07:33:55;;;;;;;2.00;1.90;;;22.90;32.40;;;;;;4956402;28;20458;-70
2022/03/13 07:36:21;;;;;;;2.17;2.07;;;23.40;31.90;;;;;;4956375;29;20506;-71
2022/03/13 07:38:48;;;;;;;1.90;1.80;;;23.90;31.10;;;;;;4956401;29;20473;-71
2022/03/13 07:41:15;;;;;;;1.77;1.67;;;23.80;31.10;;;;;;4956315;29;20506;-71
2022/03/13 07:43:41;;;;;;;1.80;1.70;;;23.20;31.70;;;;;;4956298;29;20505;-71
2022/03/13 07:46:09;;;;;;;2.07;1.97;;;22.20;32.60;;;;;;4955889;28;21029;-71
2022/03/13 07:48:36;;;;;;;3.73;2.50;;;21.10;33.90;;;;;;4955958;29;20447;-71
2022/03/13 07:51:04;;;;;;;1.97;1.87;;;19.90;35.50;;;;;;4956247;29;20838;-71
2022/03/13 07:53:30;;;;;;;2.07;1.97;;;18.90;36.50;;;;;;4955826;29;21005;-71
2022/03/13 07:55:57;;;;;;;2.17;2.07;;;18.00;37.70;;;;;;4956107;28;20467;-69
2022/03/13 07:58:24;;;;;;;2.40;2.20;;;17.30;39.20;;;;;;4955378;28;20557;-70
2022/03/13 08:00:51;;;;;;;2.10;2.00;;;16.60;40.50;;;;;;4955757;29;20976;-71
2022/03/13 08:03:24;;;;;;;2.10;2.00;;;16.20;41.30;;;;;;4956042;29;20454;-71
2022/03/13 08:05:52;;;;;;;2.10;2.00;;;15.80;41.60;;;;;;4955855;28;20475;-71
2022/03/13 08:08:19;;;;;;;2.10;2.00;;;15.40;42.60;;;;;;4955389;29;20989;-70
2022/03/13 08:10:45;;;;;;;2.20;2.10;;;14.90;43.50;;;;;;4955789;29;20454;-71
2022/03/13 08:13:12;;;;;;;2.00;1.90;;;14.40;43.70;;;;;;4955821;29;20446;-71
2022/03/13 08:15:39;;;;;;;1.90;1.80;;;14.30;44.60;;;;;;4955455;28;20483;-70
2022/03/13 08:18:06;;;;;;;2.40;2.30;;;14.20;44.50;;;;;;4955313;29;21102;-69
2022/03/13 08:20:34;;;;;;;1.90;1.80;;;13.60;44.80;;;;;;4955765;29;20459;-70
2022/03/13 08:23:01;;;;;;;1.90;1.80;;;13.40;44.90;;;;;;4955654;29;20501;-70
2022/03/13 08:25:27;;;;;;;2.10;2.00;;;13.10;45.60;;;;;;4955569;28;20474;-71
2022/03/13 08:27:54;;;;;;;2.33;2.23;;;12.90;46.80;;;;;;4955583;29;20447;-69
2022/03/13 08:30:22;;;;;;;2.20;2.10;;;12.80;46.50;;;;;;4955538;29;20458;-69
2022/03/13 08:32:49;;;;;;;2.10;2.00;;;12.40;45.90;;;;;;4955546;29;20504;-70
2022/03/13 08:35:17;;;;;;;1.67;1.57;;;12.50;46.60;;;;;;4955363;28;20474;-71
2022/03/13 08:37:45;;;;;;;2.40;2.30;;;12.20;46.90;;;;;;4955378;29;20483;-71
2022/03/13 08:40:13;;;;;;;1.97;1.87;;;12.30;47.20;;;;;;4955346;29;20454;-71
2022/03/13 08:42:40;;;;;;;1.97;1.87;;;12.30;46.80;;;;;;4955455;29;20447;-71
2022/03/13 08:45:08;;;;;;;2.07;1.97;;;12.40;47.10;;;;;;4955032;28;20840;-70
2022/03/13 08:47:35;;;;;;;2.17;2.07;;;12.50;46.90;;;;;;4955913;29;20443;-70
2022/03/13 08:50:01;;;;;;;2.93;2.27;;;12.50;47.50;;;;;;4955558;29;20504;-69
2022/03/13 08:52:28;;;;;;;2.43;2.33;;;12.70;47.50;;;;;;4955450;29;20468;-70
2022/03/13 08:54:56;;;;;;;1.90;1.80;;;12.60;47.60;;;;;;4955405;28;20517;-70
2022/03/13 08:57:23;;;;;;;2.03;1.93;;;12.80;47.60;;;;;;4955712;29;20483;-70
2022/03/13 08:59:49;;;;;;;2.03;1.93;;;12.90;47.40;;;;;;4955350;29;20478;-70
2022/03/13 09:02:22;;;;;;;1.90;1.80;;;12.60;47.50;;;;;;4955366;29;20506;-68
2022/03/13 09:04:48;;;;;;;2.30;2.20;;;12.80;48.40;;;;;;4954849;28;20986;-69
2022/03/13 09:07:16;;;;;;;1.97;1.87;;;12.70;47.80;;;;;;4955163;29;20443;-69
2022/03/13 09:09:42;;;;;;;1.90;1.80;;;12.60;48.00;;;;;;4956435;28;20877;-69
2022/03/13 09:12:11;;;;;;;1.90;1.80;;;12.40;48.40;;;;;;4959090;29;20462;-69
2022/03/13 09:14:38;;;;;;;1.90;1.80;;;12.50;48.40;;;;;;4958789;28;20577;-69
2022/03/13 09:17:05;;;;;;;2.00;1.90;;;12.50;47.90;;;;;;4959476;29;20479;-69
2022/03/13 09:19:31;;;;;;;1.93;1.83;;;12.70;48.20;;;;;;4958871;29;20505;-71
2022/03/13 09:21:58;;;;;;;2.20;2.10;;;12.70;47.60;;;;;;4958969;29;20478;-69
2022/03/13 09:24:25;;;;;;;2.27;2.17;;;12.60;47.20;;;;;;4958830;28;20475;-69
2022/03/13 09:26:51;;;;;;;1.80;1.70;;;12.50;47.10;;;;;;4958948;29;20446;-69
2022/03/13 09:29:19;;;;;;;2.10;2.00;;;12.50;47.80;;;;;;4958882;29;20482;-70
2022/03/13 09:31:46;;;;;;;1.87;1.77;;;12.60;47.70;;;;;;4958803;29;20502;-70
2022/03/13 09:34:13;;;;;;;2.20;2.10;;;12.70;47.40;;;;;;4958704;28;20470;-70
2022/03/13 09:36:42;;;;;;;2.00;1.90;;;12.70;48.60;;;;;;4958707;29;20447;-69
2022/03/13 09:39:09;;;;;;;1.90;1.80;;;13.00;47.70;;;;;;4958416;29;20974;-69
2022/03/13 09:41:38;;;;;;;2.10;2.00;;;13.10;47.90;;;;;;4958706;29;20489;-69
2022/03/13 09:44:06;;;;;;;2.33;2.23;;;13.10;47.30;;;;;;4958159;28;21016;-69
2022/03/13 09:46:36;;;;;;;2.00;1.83;;;13.10;47.80;;;;;;4958482;29;20509;-70
2022/03/13 09:49:03;;;;;;;2.17;2.07;;;13.20;48.20;;;;;;4958335;29;20462;-69
2022/03/13 09:51:30;;;;;;;1.90;1.80;;;13.30;46.90;;;;;;4958054;29;20938;-69
2022/03/13 09:53:58;;;;;;;1.80;1.70;;;13.30;47.60;;;;;;4958161;28;20451;-69
2022/03/13 09:56:25;;;;;;;2.23;2.13;;;13.40;47.20;;;;;;4959106;29;20450;-69
2022/03/13 09:58:51;;;;;;;2.17;2.07;;;13.50;47.00;;;;;;4957940;29;21009;-69
2022/03/13 10:01:18;;;;;;;2.20;2.10;;;13.50;47.90;;;;;;4958651;29;20451;-69
2022/03/13 10:03:46;;;;;;;2.00;1.90;;;13.80;48.10;;;;;;4958175;29;20509;-69
2022/03/13 10:06:13;;;;;;;2.07;1.97;;;13.90;47.70;;;;;;4957864;29;20967;-69
2022/03/13 10:08:40;;;;;;;2.40;2.30;;;14.00;47.40;;;;;;4958170;29;20823;-69
2022/03/13 10:11:07;;;;;;;1.73;1.63;;;14.10;47.60;;;;;;4958109;29;20454;-69
2022/03/13 10:13:36;;;;;;;1.93;1.83;;;14.10;46.70;;;;;;4958025;29;20447;-69
2022/03/13 10:16:05;;;;;;;2.07;1.97;;;14.30;46.90;;;;;;4958730;28;20623;-70
2022/03/13 10:18:31;;;;;;;2.10;2.00;;;14.50;46.40;;;;;;4957994;29;20497;-70
2022/03/13 10:21:07;;;;;;;2.10;2.00;;;14.60;46.20;;;;;;4957084;28;20478;-70
2022/03/13 10:23:34;;;;;;;2.47;2.37;;;14.70;45.90;;;;;;4957783;29;20434;-70
2022/03/13 10:26:00;;;;;;;2.40;2.30;;;14.80;45.80;;;;;;4957373;28;20471;-69
2022/03/13 10:28:30;;;;;;;2.27;2.17;;;14.80;44.70;;;;;;4957446;29;21079;-70
2022/03/13 10:31:16;;;;;;;2.30;2.10;;;14.90;44.10;;;;;;4957703;29;20455;-69
2022/03/13 10:33:58;;;;;;;2.03;1.93;;;14.90;44.70;;;;;;4957674;29;20446;-69
2022/03/13 10:36:33;;;;;;;2.20;2.10;;;15.00;44.20;;;;;;4957281;29;20530;-69
2022/03/13 10:39:02;;;;;;;2.13;2.03;;;15.00;44.30;;;;;;4957463;29;20505;-69
2022/03/13 10:41:46;;;;;;;2.00;1.90;;;15.20;43.70;;;;;;4957490;29;20795;-70
2022/03/13 10:44:15;;;;;;;2.23;2.13;;;15.20;42.60;;;;;;4957379;28;20571;-69
2022/03/13 10:46:42;;;;;;;2.77;2.67;;;15.20;43.80;;;;;;4957270;29;20447;-69
2022/03/13 10:49:09;;;;;;;2.30;2.20;;;15.30;42.80;;;;;;4958520;29;20447;-70
2022/03/13 10:51:40;;;;;;;2.23;2.13;;;15.30;42.70;;;;;;4957169;29;20557;-69
2022/03/13 10:54:08;;;;;;;2.30;2.20;;;15.30;42.60;;;;;;4957699;28;20435;-70
2022/03/13 10:56:35;;;;;;;2.27;2.17;;;15.20;43.20;;;;;;4957108;29;20506;-69
2022/03/13 10:59:17;;;;;;;2.90;2.70;;;15.20;43.70;;;;;;4956750;29;20884;-70
2022/03/13 11:01:44;;;;;;;2.00;1.90;;;15.20;43.90;;;;;;4957227;29;20509;-69
2022/03/13 11:04:10;;;;;;;2.00;1.90;;;15.20;43.50;;;;;;4957061;28;20533;-69
2022/03/13 11:06:39;;;;;;;2.20;2.10;;;15.30;42.90;;;;;;4957083;29;20525;-69
2022/03/13 11:09:05;;;;;;;1.97;1.87;;;15.30;44.10;;;;;;4957054;29;20451;-69
2022/03/13 11:11:34;;;;;;;2.43;2.33;;;15.40;43.60;;;;;;4956996;29;20537;-70
2022/03/13 11:14:02;;;;;;;2.30;2.20;;;15.50;43.50;;;;;;4956900;28;20455;-70
2022/03/13 11:16:31;;;;;;;2.03;1.93;;;15.50;42.70;;;;;;4956598;29;20526;-69
2022/03/13 11:19:00;;;;;;;2.37;2.17;;;15.60;43.10;;;;;;4956740;29;20486;-69
2022/03/13 11:21:27;;;;;;;2.20;2.10;;;15.80;42.40;;;;;;4956711;29;20521;-69
2022/03/13 11:23:55;;;;;;;2.23;2.13;;;15.80;42.70;;;;;;4975069;28;20447;-70
2022/03/13 11:26:26;;;;;;;2.30;2.20;;;15.80;42.10;;;;;;4966620;29;20494;-70
2022/03/13 11:28:53;;;;;;;2.43;2.33;;;15.90;42.20;;;;;;4957973;29;20434;-70
2022/03/13 11:31:32;;;;;;;2.60;2.50;;;16.10;42.00;;;;;;4956776;29;20536;-68
2022/03/13 11:34:13;;;;;;;2.47;2.37;;;16.20;41.50;;;;;;4955543;28;20866;-69
2022/03/13 11:36:41;;;;;;;2.97;2.77;;;16.20;42.00;;;;;;4956518;29;20435;-69
2022/03/13 11:39:11;;;;;;;2.53;2.43;;;16.30;42.90;;;;;;4956361;29;20545;-70
2022/03/13 11:41:40;;;;;;;2.17;2.07;;;16.50;42.50;;;;;;4956406;29;20451;-69
2022/03/13 11:44:38;;;;;;;2.83;2.70;;;16.30;41.30;;;;;;4956329;28;20459;-71
2022/03/13 11:47:22;;;;;;;2.20;2.10;;;16.40;41.30;;;;;;4956168;29;20494;-70
2022/03/13 11:49:49;;;;;;;2.50;2.40;;;16.50;41.10;;;;;;4955992;29;20818;-70
2022/03/13 11:52:30;;;;;;;2.50;2.40;;;16.50;40.60;;;;;;4955874;29;20478;-70
2022/03/13 11:55:11;;;;;;;2.33;2.23;;;16.40;40.90;;;;;;5091193;28;20901;-70
2022/03/13 11:57:45;;;;;;;2.23;2.13;;;16.50;40.70;;;;;;5091003;28;20427;-71
2022/03/13 12:00:31;;;;;;;2.40;2.30;;;16.50;41.70;;;;;;5090914;28;20448;-70
2022/03/13 12:03:11;;;;;;;2.50;2.40;;;16.60;41.50;;;;;;5091047;28;20432;-70
2022/03/13 12:05:51;;;;;;;2.53;2.43;;;16.80;41.20;;;;;;5090669;28;20983;-70
2022/03/13 12:08:22;;;;;;;2.33;2.23;;;16.70;40.70;;;;;;5092230;28;20433;-71
2022/03/13 12:10:50;;;;;;;2.50;2.40;;;16.60;40.70;;;;;;5091286;28;20532;-70
2022/03/13 12:13:19;;;;;;;2.37;2.27;;;16.60;40.60;;;;;;5090775;28;20558;-70
2022/03/13 12:15:46;;;;;;;2.30;2.20;;;16.60;40.90;;;;;;5090705;28;20824;-70
2022/03/13 12:18:17;;;;;;;2.60;2.50;;;16.70;40.10;;;;;;5090665;28;20531;-70
2022/03/13 12:20:45;;;;;;;2.50;2.40;;;16.90;40.10;;;;;;5090666;28;20440;-70
2022/03/13 12:23:24;;;;;;;2.50;2.40;;;16.70;39.40;;;;;;5090591;28;20440;-70
2022/03/13 12:25:54;;;;;;;2.40;2.30;;;16.70;39.70;;;;;;5090524;28;20461;-70
2022/03/13 12:28:33;;;;;;;2.60;2.50;;;16.90;39.30;;;;;;5090733;28;20494;-71
2022/03/13 12:31:03;;;;;;;2.20;2.10;;;17.00;39.00;;;;;;5090510;28;20524;-70
2022/03/13 12:33:32;;;;;;;2.50;2.40;;;17.20;38.80;;;;;;5090677;28;20516;-70
2022/03/13 12:36:02;;;;;;;2.40;2.30;;;17.30;38.60;;;;;;5090242;28;20469;-70
2022/03/13 12:38:30;;;;;;;2.23;2.13;;;17.40;39.30;;;;;;5090092;28;20812;-70
2022/03/13 12:40:59;;;;;;;2.60;2.50;;;17.50;38.20;;;;;;5090293;28;20460;-70
2022/03/13 12:43:36;;;;;;;2.77;2.67;;;17.60;38.00;;;;;;5090303;28;20996;-71
2022/03/13 12:46:04;;;;;;;2.37;2.27;;;17.80;38.40;;;;;;5090395;28;20468;-71
2022/03/13 12:48:31;;;;;;;2.50;2.40;;;17.80;37.70;;;;;;5090114;28;20448;-70
2022/03/13 12:50:57;;;;;;;2.43;2.33;;;17.90;38.50;;;;;;5090081;28;20503;-70
2022/03/13 12:53:26;;;;;;;2.40;2.30;;;18.20;37.20;;;;;;5089578;28;20520;-71
2022/03/13 12:55:54;;;;;;;2.40;2.30;;;18.40;37.20;;;;;;5089402;28;20988;-70
2022/03/13 12:58:22;;;;;;;2.50;2.40;;;18.70;36.50;;;;;;5089492;28;20445;-70
2022/03/13 13:00:50;;;;;;;2.57;2.47;;;19.00;36.10;;;;;;5089726;28;20498;-70
2022/03/13 13:03:17;;;;;;;2.40;2.30;;;19.20;36.20;;;;;;5089391;28;20818;-70
2022/03/13 13:05:51;;;;;;;2.30;2.10;;;19.50;35.60;;;;;;5079941;28;20469;-70
2022/03/13 13:08:18;;;;;;;2.40;2.30;;;19.60;35.20;;;;;;5076025;28;20473;-70
2022/03/13 13:10:45;;;;;;;2.40;2.30;;;19.50;34.90;;;;;;5076416;28;20445;-71
2022/03/13 13:13:24;;;;;;;2.47;2.37;;;19.40;35.20;;;;;;5075957;28;20441;-70
2022/03/13 13:15:56;;;;;;;2.03;1.93;;;19.50;35.20;;;;;;5075877;28;20465;-70
2022/03/13 13:18:23;;;;;;;2.40;2.20;;;19.80;35.40;;;;;;5075550;28;20927;-70
2022/03/13 13:20:51;;;;;;;2.20;2.10;;;20.00;34.40;;;;;;5075984;28;20445;-69
2022/03/13 13:23:18;;;;;;;2.13;2.03;;;19.80;34.00;;;;;;5075776;28;20446;-70
2022/03/13 13:25:50;;;;;;;1.80;1.70;;;19.60;34.00;;;;;;5075749;28;20480;-70
2022/03/13 13:28:18;;;;;;;1.83;1.73;;;19.70;34.70;;;;;;5075481;28;20935;-70
2022/03/13 13:30:46;;;;;;;1.97;1.83;;;19.90;34.50;;;;;;5075639;28;20441;-71
2022/03/13 13:33:13;;;;;;;2.10;2.00;;;20.20;34.40;;;;;;5075512;28;20865;-70
2022/03/13 13:35:44;;;;;;;2.17;2.07;;;20.40;33.70;;;;;;5075532;28;20469;-71
2022/03/13 13:38:14;;;;;;;1.60;1.50;;;20.30;33.60;;;;;;5075274;28;20827;-72
2022/03/13 13:40:42;;;;;;;1.90;1.80;;;20.10;33.40;;;;;;5075266;28;20802;-71
2022/03/13 13:43:12;;;;;;;1.77;1.67;;;20.10;33.20;;;;;;5075592;28;20532;-70
2022/03/13 13:45:47;;;;;;;1.90;1.80;;;20.00;33.90;;;;;;5075327;28;20500;-71
2022/03/13 13:48:44;;;;;;;1.97;1.87;;;20.50;34.40;;;;;;5075582;28;20429;-71
2022/03/13 13:51:23;;;;;;;1.77;1.67;;;20.80;33.20;;;;;;5074417;28;20537;-71
2022/03/13 13:53:52;;;;;;;1.90;1.80;;;20.80;33.10;;;;;;5074680;28;20481;-72
2022/03/13 13:56:26;;;;;;;2.07;1.97;;;20.90;33.20;;;;;;5074903;28;20937;-71
2022/03/13 13:58:54;;;;;;;2.10;2.00;;;20.90;33.10;;;;;;5075259;28;20434;-70
2022/03/13 14:01:24;;;;;;;2.70;2.60;;;21.00;33.40;;;;;;5075015;28;20449;-70
2022/03/13 14:03:51;;;;;;;1.97;1.87;;;21.20;32.70;;;;;;5074959;28;20532;-72
2022/03/13 14:06:19;;;;;;;1.87;1.77;;;21.40;32.10;;;;;;5075008;28;20449;-72
2022/03/13 14:08:47;;;;;;;1.87;1.77;;;21.80;32.00;;;;;;5074606;28;20952;-70
2022/03/13 14:11:15;;;;;;;1.97;1.87;;;22.10;31.90;;;;;;5074879;28;20540;-70
2022/03/13 14:13:42;;;;;;;2.20;2.10;;;22.70;31.00;;;;;;5074711;28;20477;-70
2022/03/13 14:16:08;;;;;;;2.00;1.90;;;23.00;30.60;;;;;;5074214;28;20470;-70
2022/03/13 14:18:36;;;;;;;1.90;1.80;;;24.10;29.90;;;;;;5074043;28;20446;-70
2022/03/13 14:21:03;;;;;;;2.40;2.30;;;25.50;28.10;;;;;;5074783;28;20449;-70
2022/03/13 14:23:30;;;;;;;3.10;2.20;;;26.50;27.70;;;;;;5074358;28;20858;-71
2022/03/13 14:25:57;;;;;;;1.63;1.53;;;27.10;26.50;;;;;;5074652;28;20469;-71
2022/03/13 14:28:24;;;;;;;2.17;2.07;;;27.70;26.20;;;;;;5074694;28;20491;-69
2022/03/13 14:30:53;;;;;;;2.17;2.07;;;28.20;25.80;;;;;;5074636;28;20449;-70
2022/03/13 14:33:20;;;;;;;1.87;1.77;;;28.30;25.80;;;;;;5074502;28;20459;-70
2022/03/13 14:35:48;;;;;;;1.60;1.50;;;28.40;25.70;;;;;;5073942;28;20874;-69
2022/03/13 14:38:16;;;;;;;2.10;2.00;;;29.10;25.30;;;;;;5074447;28;20450;-70
2022/03/13 14:40:44;;;;;;;1.80;1.70;;;29.70;24.60;;;;;;5074403;28;20445;-69
2022/03/13 14:43:11;;;;;;;1.80;1.70;;;29.70;24.70;;;;;;5074059;28;20944;-70
2022/03/13 14:45:39;;;;;;;1.77;1.67;;;29.50;24.70;;;;;;5073955;28;20461;-70
2022/03/13 14:48:07;;;;;;;2.07;1.97;;;29.80;24.70;;;;;;5074276;28;20484;-70
2022/03/13 14:50:34;;;;;;;2.00;1.90;;;29.80;24.30;;;;;;5074203;28;20586;-70
2022/03/13 14:53:02;;;;;;;1.80;1.70;;;29.90;24.40;;;;;;5073867;28;20466;-70
2022/03/13 14:55:28;;;;;;;2.00;1.80;;;29.80;23.90;;;;;;5073929;28;20478;-71
2022/03/13 14:57:55;;;;;;;1.57;1.47;;;29.00;24.50;;;;;;5074106;28;20495;-72
2022/03/13 15:00:22;;;;;;;1.90;1.80;;;28.60;27.90;;;;;;5073987;28;20492;-73
2022/03/13 15:02:48;;;;;;;1.73;1.63;;;28.90;27.20;;;;;;5073671;28;20879;-72
2022/03/13 15:05:15;;;;;;;1.90;1.80;;;28.90;26.10;;;;;;5073615;28;20969;-73
2022/03/13 15:07:42;;;;;;;1.80;1.70;;;28.90;25.80;;;;;;5073858;28;20445;-73
2022/03/13 15:10:11;;;;;;;1.87;1.77;;;28.90;26.40;;;;;;5073764;28;20468;-71
2022/03/13 15:12:37;;;;;;;2.27;2.17;;;28.70;26.00;;;;;;5073669;28;20539;-71
2022/03/13 15:15:06;;;;;;;2.30;2.10;;;28.50;25.70;;;;;;5073542;28;20535;-70
2022/03/13 15:17:32;;;;;;;1.80;1.70;;;28.70;25.20;;;;;;5073421;28;21023;-71
2022/03/13 15:19:59;;;;;;;2.03;1.93;;;28.50;25.50;;;;;;5073736;28;20446;-70
2022/03/13 15:22:27;;;;;;;1.87;1.77;;;28.50;25.50;;;;;;5073702;28;20445;-70
2022/03/13 15:24:55;;;;;;;2.00;1.80;;;28.30;25.40;;;;;;5073569;28;20510;-70
2022/03/13 15:27:23;;;;;;;2.17;2.07;;;27.90;25.70;;;;;;5073175;28;20869;-70
2022/03/13 15:29:50;;;;;;;2.00;1.90;;;27.70;25.80;;;;;;5073147;28;20827;-70
2022/03/13 15:32:16;;;;;;;1.80;1.70;;;27.50;25.80;;;;;;5073566;28;20454;-70
2022/03/13 15:34:43;;;;;;;2.17;2.07;;;26.90;26.40;;;;;;5073377;28;20485;-70
2022/03/13 15:37:12;;;;;;;1.70;1.60;;;26.30;27.30;;;;;;5073455;28;20515;-70
2022/03/13 15:39:39;;;;;;;2.00;1.90;;;25.70;27.60;;;;;;5073342;28;20809;-70
2022/03/13 15:42:06;;;;;;;1.73;1.63;;;25.20;28.20;;;;;;5073146;28;20936;-70
2022/03/13 15:44:34;;;;;;;2.00;1.90;;;24.60;28.90;;;;;;5073302;28;20457;-70
2022/03/13 15:47:01;;;;;;;2.33;2.23;;;24.10;29.40;;;;;;5073116;28;20476;-70
2022/03/13 15:49:29;;;;;;;2.37;2.27;;;23.60;29.80;;;;;;5073149;28;20448;-70
2022/03/13 15:51:56;;;;;;;2.20;2.10;;;23.00;30.50;;;;;;5074164;28;20445;-71
2022/03/13 15:54:22;;;;;;;1.83;1.73;;;22.20;31.30;;;;;;5072880;28;20539;-70
2022/03/13 15:56:49;;;;;;;1.80;1.70;;;21.50;32.20;;;;;;5073442;28;20446;-70
2022/03/13 15:59:16;;;;;;;2.10;2.00;;;20.80;32.80;;;;;;5073252;28;20446;-70
2022/03/13 16:01:44;;;;;;;2.07;1.70;;;20.20;33.40;;;;;;5073248;28;20445;-70
2022/03/13 16:04:11;;;;;;;2.00;1.90;;;19.80;33.80;;;;;;5072778;28;20461;-71
2022/03/13 16:06:38;;;;;;;1.60;1.50;;;19.50;34.10;;;;;;5072824;28;20468;-70
2022/03/13 16:09:05;;;;;;;2.07;1.70;;;19.40;34.30;;;;;;5072838;28;20445;-72
2022/03/13 16:11:32;;;;;;;2.10;2.00;;;19.00;34.30;;;;;;5072858;28;21066;-70
2022/03/13 16:13:58;;;;;;;1.87;1.77;;;18.80;34.80;;;;;;5072811;28;20495;-71
2022/03/13 16:16:25;;;;;;;2.03;1.93;;;18.60;34.60;;;;;;5073121;28;20491;-70
2022/03/13 16:18:54;;;;;;;1.50;1.40;;;18.40;35.00;;;;;;5073113;28;20487;-70
2022/03/13 16:21:22;;;;;;;1.60;1.50;;;18.20;35.10;;;;;;5073088;28;20441;-70
2022/03/13 16:23:49;;;;;;;1.53;1.43;;;18.20;34.90;;;;;;5072973;28;20449;-72
2022/03/13 16:26:15;;;;;;;1.47;1.37;;;18.20;34.80;;;;;;5072933;28;20434;-70
2022/03/13 16:28:42;;;;;;;1.97;1.87;;;18.30;35.00;;;;;;5072644;28;20941;-71
2022/03/13 16:31:09;;;;;;;1.87;1.50;;;18.20;34.80;;;;;;5072928;28;20477;-71
2022/03/13 16:33:35;;;;;;;1.83;1.73;;;17.80;35.00;;;;;;5072941;28;20446;-71
2022/03/13 16:36:04;;;;;;;1.30;1.20;;;17.70;34.90;;;;;;5072796;28;20485;-70
2022/03/13 16:38:30;;;;;;;1.60;1.50;;;17.70;34.90;;;;;;5072970;28;20445;-71
2022/03/13 16:41:00;;;;;;;1.30;1.20;;;17.70;34.70;;;;;;5075177;28;20441;-71
2022/03/13 16:43:28;;;;;;;1.50;1.40;;;17.70;34.90;;;;;;5076587;28;20445;-71
2022/03/13 16:45:55;;;;;;;1.60;1.50;;;17.80;35.10;;;;;;5076263;28;20466;-71
2022/03/13 16:48:22;;;;;;;1.50;1.40;;;17.80;35.00;;;;;;5076118;28;20932;-70
2022/03/13 16:50:51;;;;;;;1.50;1.40;;;17.70;35.10;;;;;;5076621;28;20853;-70
2022/03/13 16:53:19;;;;;;;1.40;1.30;;;17.80;35.20;;;;;;5076123;28;20945;-70
2022/03/13 16:55:46;;;;;;;1.60;1.30;;;17.90;35.10;;;;;;5076196;28;20485;-70